sensor_id;sensor_type;location;lat;lon;timestamp;pressure;altitude;pressure_sealevel;temperature;humidity
9969;BME280;5025;48.890;9.278;2022-09-19T00:01:37;98789.41;;;9.54;82.57
9969;BME280;5025;48.890;9.278;2022-09-19T00:04:10;98795.03;;;9.52;82.63
9969;BME280;5025;48.890;9.278;2022-09-19T00:06:37;98798.16;;;9.49;82.84
9969;BME280;5025;48.890;9.278;2022-09-19T00:09:06;98804.44;;;9.43;83.18
9969;BME280;5025;48.890;9.278;2022-09-19T00:11:33;98802.56;;;9.43;83.41
9969;BME280;5025;48.890;9.278;2022-09-19T00:13:59;98805.66;;;9.47;83.21
9969;BME280;5025;48.890;9.278;2022-09-19T00:16:28;98806.63;;;9.52;83.26
9969;BME280;5025;48.890;9.278;2022-09-19T00:18:56;98803.72;;;9.54;83.10
9969;BME280;5025;48.890;9.278;2022-09-19T00:21:40;98797.91;;;9.32;82.96
9969;BME280;5025;48.890;9.278;2022-09-19T00:24:08;98810.88;;;9.17;83.31
9969;BME280;5025;48.890;9.278;2022-09-19T00:26:53;98807.75;;;9.20;83.14
9969;BME280;5025;48.890;9.278;2022-09-19T00:29:21;98815.94;;;9.06;82.97
9969;BME280;5025;48.890;9.278;2022-09-19T00:31:46;98815.50;;;9.09;83.06
9969;BME280;5025;48.890;9.278;2022-09-19T00:34:14;98814.88;;;9.07;82.92
9969;BME280;5025;48.890;9.278;2022-09-19T00:36:40;98815.31;;;9.04;82.91
9969;BME280;5025;48.890;9.278;2022-09-19T00:39:09;98824.47;;;8.96;82.81
9969;BME280;5025;48.890;9.278;2022-09-19T00:41:35;98826.41;;;8.89;82.76
9969;BME280;5025;48.890;9.278;2022-09-19T00:46:45;98821.03;;;8.83;82.92
9969;BME280;5025;48.890;9.278;2022-09-19T00:49:12;98818.53;;;8.88;82.96
9969;BME280;5025;48.890;9.278;2022-09-19T00:51:42;98833.69;;;8.82;82.75
9969;BME280;5025;48.890;9.278;2022-09-19T00:54:17;98837.63;;;8.79;82.85
9969;BME280;5025;48.890;9.278;2022-09-19T00:56:45;98832.34;;;8.66;82.89
9969;BME280;5025;48.890;9.278;2022-09-19T00:59:12;98832.78;;;8.56;83.22
9969;BME280;5025;48.890;9.278;2022-09-19T01:01:38;98831.59;;;8.46;83.35
9969;BME280;5025;48.890;9.278;2022-09-19T01:04:16;98841.75;;;8.37;83.83
9969;BME280;5025;48.890;9.278;2022-09-19T01:15:16;98841.56;;;8.25;84.23
9969;BME280;5025;48.890;9.278;2022-09-19T01:17:48;98839.13;;;8.17;84.54
9969;BME280;5025;48.890;9.278;2022-09-19T01:25:26;98838.22;;;8.36;84.08
9969;BME280;5025;48.890;9.278;2022-09-19T01:27:58;98838.66;;;8.33;83.96
9969;BME280;5025;48.890;9.278;2022-09-19T01:30:34;98838.25;;;8.30;83.97
9969;BME280;5025;48.890;9.278;2022-09-19T01:33:13;98847.56;;;8.34;83.85
9969;BME280;5025;48.890;9.278;2022-09-19T01:35:45;98848.19;;;8.22;84.14
9969;BME280;5025;48.890;9.278;2022-09-19T01:38:31;98849.91;;;8.17;84.29
9969;BME280;5025;48.890;9.278;2022-09-19T01:41:04;98855.63;;;8.27;84.08
9969;BME280;5025;48.890;9.278;2022-09-19T01:43:29;98854.22;;;8.24;83.80
9969;BME280;5025;48.890;9.278;2022-09-19T01:45:58;98854.44;;;8.23;83.68
9969;BME280;5025;48.890;9.278;2022-09-19T01:48:45;98858.31;;;8.27;83.49
9969;BME280;5025;48.890;9.278;2022-09-19T01:54:01;98862.66;;;8.41;83.25
9969;BME280;5025;48.890;9.278;2022-09-19T01:59:35;98855.00;;;8.38;82.90
9969;BME280;5025;48.890;9.278;2022-09-19T02:02:13;98861.41;;;8.37;83.07
9969;BME280;5025;48.890;9.278;2022-09-19T02:04:55;98858.50;;;8.39;82.97
9969;BME280;5025;48.890;9.278;2022-09-19T02:07:36;98854.78;;;8.33;82.86
9969;BME280;5025;48.890;9.278;2022-09-19T02:10:12;98860.41;;;8.25;82.91
9969;BME280;5025;48.890;9.278;2022-09-19T02:12:40;98868.09;;;8.21;82.77
9969;BME280;5025;48.890;9.278;2022-09-19T02:15:08;98866.84;;;8.17;83.00
9969;BME280;5025;48.890;9.278;2022-09-19T02:17:46;98870.38;;;8.11;83.28
9969;BME280;5025;48.890;9.278;2022-09-19T02:20:26;98869.34;;;8.05;83.22
9969;BME280;5025;48.890;9.278;2022-09-19T02:22:57;98875.56;;;7.99;83.34
9969;BME280;5025;48.890;9.278;2022-09-19T02:25:28;98874.34;;;7.95;83.33
9969;BME280;5025;48.890;9.278;2022-09-19T02:28:05;98868.56;;;7.98;83.36
9969;BME280;5025;48.890;9.278;2022-09-19T02:30:32;98868.56;;;7.98;83.77
9969;BME280;5025;48.890;9.278;2022-09-19T02:32:58;98865.88;;;7.98;83.48
9969;BME280;5025;48.890;9.278;2022-09-19T02:38:24;98868.97;;;7.95;83.59
9969;BME280;5025;48.890;9.278;2022-09-19T02:41:04;98867.50;;;7.99;84.21
9969;BME280;5025;48.890;9.278;2022-09-19T02:43:49;98868.78;;;7.90;84.17
9969;BME280;5025;48.890;9.278;2022-09-19T02:47:09;98865.84;;;7.92;84.43
9969;BME280;5025;48.890;9.278;2022-09-19T02:49:10;98872.69;;;7.94;84.46
9969;BME280;5025;48.890;9.278;2022-09-19T02:51:43;98868.75;;;7.97;84.59
9969;BME280;5025;48.890;9.278;2022-09-19T02:54:18;98873.94;;;7.98;84.76
9969;BME280;5025;48.890;9.278;2022-09-19T02:56:46;98870.00;;;7.94;84.85
9969;BME280;5025;48.890;9.278;2022-09-19T02:59:19;98866.50;;;7.94;84.91
9969;BME280;5025;48.890;9.278;2022-09-19T03:01:50;98875.97;;;7.96;84.83
9969;BME280;5025;48.890;9.278;2022-09-19T03:04:22;98882.22;;;7.97;84.90
9969;BME280;5025;48.890;9.278;2022-09-19T03:07:11;98888.00;;;8.00;84.93
9969;BME280;5025;48.890;9.278;2022-09-19T03:09:39;98899.56;;;8.07;84.83
9969;BME280;5025;48.890;9.278;2022-09-19T03:12:19;98892.09;;;8.23;84.37
9969;BME280;5025;48.890;9.278;2022-09-19T03:14:47;98899.31;;;8.29;83.88
9969;BME280;5025;48.890;9.278;2022-09-19T03:17:16;98890.00;;;8.25;83.81
9969;BME280;5025;48.890;9.278;2022-09-19T03:19:47;98889.16;;;8.31;83.81
9969;BME280;5025;48.890;9.278;2022-09-19T03:22:13;98897.63;;;8.35;83.57
9969;BME280;5025;48.890;9.278;2022-09-19T03:24:40;98904.88;;;8.34;83.56
9969;BME280;5025;48.890;9.278;2022-09-19T03:27:06;98892.47;;;8.33;83.61
9969;BME280;5025;48.890;9.278;2022-09-19T03:29:31;98901.16;;;8.35;83.53
9969;BME280;5025;48.890;9.278;2022-09-19T03:31:58;98910.66;;;8.38;83.39
9969;BME280;5025;48.890;9.278;2022-09-19T03:34:23;98906.78;;;8.20;83.21
9969;BME280;5025;48.890;9.278;2022-09-19T03:36:48;98898.31;;;8.03;83.70
9969;BME280;5025;48.890;9.278;2022-09-19T03:39:14;98892.53;;;8.06;83.69
9969;BME280;5025;48.890;9.278;2022-09-19T03:41:39;98894.81;;;8.03;83.67
9969;BME280;5025;48.890;9.278;2022-09-19T03:44:04;98896.03;;;8.07;83.71
9969;BME280;5025;48.890;9.278;2022-09-19T03:46:30;98899.16;;;8.11;83.73
9969;BME280;5025;48.890;9.278;2022-09-19T03:48:57;98898.94;;;8.05;83.79
9969;BME280;5025;48.890;9.278;2022-09-19T03:51:23;98906.41;;;8.03;84.03
9969;BME280;5025;48.890;9.278;2022-09-19T03:53:49;98912.81;;;8.09;84.20
9969;BME280;5025;48.890;9.278;2022-09-19T03:56:15;98912.38;;;8.19;83.85
9969;BME280;5025;48.890;9.278;2022-09-19T03:58:42;98916.50;;;8.15;83.50
9969;BME280;5025;48.890;9.278;2022-09-19T04:01:08;98918.78;;;8.18;83.89
9969;BME280;5025;48.890;9.278;2022-09-19T04:03:35;98927.88;;;8.23;83.57
9969;BME280;5025;48.890;9.278;2022-09-19T04:06:02;98923.72;;;8.21;83.60
9969;BME280;5025;48.890;9.278;2022-09-19T04:08:28;98929.53;;;8.31;83.46
9969;BME280;5025;48.890;9.278;2022-09-19T04:10:53;98922.69;;;8.35;83.17
9969;BME280;5025;48.890;9.278;2022-09-19T04:13:19;98914.81;;;8.34;83.07
9969;BME280;5025;48.890;9.278;2022-09-19T04:15:47;98912.78;;;8.29;83.25
9969;BME280;5025;48.890;9.278;2022-09-19T04:18:13;98915.88;;;8.26;83.30
9969;BME280;5025;48.890;9.278;2022-09-19T04:20:38;98916.28;;;8.16;83.65
9969;BME280;5025;48.890;9.278;2022-09-19T04:23:04;98923.72;;;8.21;83.51
9969;BME280;5025;48.890;9.278;2022-09-19T04:25:32;98926.63;;;8.19;83.86
9969;BME280;5025;48.890;9.278;2022-09-19T04:28:02;98928.47;;;8.25;83.74
9969;BME280;5025;48.890;9.278;2022-09-19T04:30:30;98932.81;;;8.33;83.61
9969;BME280;5025;48.890;9.278;2022-09-19T04:32:55;98936.53;;;8.46;83.18
9969;BME280;5025;48.890;9.278;2022-09-19T04:35:21;98942.16;;;8.51;82.99
9969;BME280;5025;48.890;9.278;2022-09-19T04:37:48;98946.06;;;8.48;83.08
9969;BME280;5025;48.890;9.278;2022-09-19T04:40:13;98950.59;;;8.54;83.22
9969;BME280;5025;48.890;9.278;2022-09-19T04:42:38;98939.59;;;8.63;82.95
9969;BME280;5025;48.890;9.278;2022-09-19T04:45:04;98945.41;;;8.66;82.65
9969;BME280;5025;48.890;9.278;2022-09-19T04:47:30;98944.63;;;8.52;82.90
9969;BME280;5025;48.890;9.278;2022-09-19T04:49:58;98954.97;;;8.49;83.41
9969;BME280;5025;48.890;9.278;2022-09-19T04:52:24;98950.38;;;8.63;83.11
9969;BME280;5025;48.890;9.278;2022-09-19T04:54:51;98956.38;;;8.58;83.16
9969;BME280;5025;48.890;9.278;2022-09-19T04:57:19;98953.28;;;8.61;83.21
9969;BME280;5025;48.890;9.278;2022-09-19T04:59:45;98961.13;;;8.63;83.32
9969;BME280;5025;48.890;9.278;2022-09-19T05:02:11;98961.97;;;8.63;83.08
9969;BME280;5025;48.890;9.278;2022-09-19T05:04:36;98962.78;;;8.70;82.73
9969;BME280;5025;48.890;9.278;2022-09-19T05:07:04;98953.41;;;8.79;82.74
9969;BME280;5025;48.890;9.278;2022-09-19T05:09:29;98963.16;;;8.81;82.65
9969;BME280;5025;48.890;9.278;2022-09-19T05:11:55;98972.91;;;8.75;82.75
9969;BME280;5025;48.890;9.278;2022-09-19T05:14:23;98975.59;;;8.82;82.66
9969;BME280;5025;48.890;9.278;2022-09-19T05:16:49;98974.31;;;8.91;82.39
9969;BME280;5025;48.890;9.278;2022-09-19T05:19:15;98976.38;;;8.95;82.13
9969;BME280;5025;48.890;9.278;2022-09-19T05:21:42;98975.09;;;8.98;82.11
9969;BME280;5025;48.890;9.278;2022-09-19T05:24:08;98981.72;;;9.02;81.94
9969;BME280;5025;48.890;9.278;2022-09-19T05:26:33;98980.06;;;9.01;81.84
9969;BME280;5025;48.890;9.278;2022-09-19T05:28:59;98988.34;;;9.00;82.21
9969;BME280;5025;48.890;9.278;2022-09-19T05:31:25;98995.84;;;8.97;82.00
9969;BME280;5025;48.890;9.278;2022-09-19T05:33:50;98999.56;;;8.96;82.22
9969;BME280;5025;48.890;9.278;2022-09-19T05:36:16;98998.94;;;8.94;82.12
9969;BME280;5025;48.890;9.278;2022-09-19T05:38:42;98997.13;;;8.82;82.26
9969;BME280;5025;48.890;9.278;2022-09-19T05:41:08;98995.06;;;8.84;82.34
9969;BME280;5025;48.890;9.278;2022-09-19T05:43:34;99000.19;;;8.92;82.46
9969;BME280;5025;48.890;9.278;2022-09-19T05:45:59;99003.53;;;8.94;82.26
9969;BME280;5025;48.890;9.278;2022-09-19T05:48:25;99008.91;;;8.94;82.34
9969;BME280;5025;48.890;9.278;2022-09-19T05:50:52;99009.72;;;8.94;82.26
9969;BME280;5025;48.890;9.278;2022-09-19T05:53:19;99012.00;;;8.97;82.20
9969;BME280;5025;48.890;9.278;2022-09-19T05:56:04;99015.16;;;8.88;82.50
9969;BME280;5025;48.890;9.278;2022-09-19T05:58:30;99016.56;;;8.90;82.46
9969;BME280;5025;48.890;9.278;2022-09-19T06:00:56;99013.66;;;8.92;82.37
9969;BME280;5025;48.890;9.278;2022-09-19T06:03:22;99023.16;;;9.01;82.28
9969;BME280;5025;48.890;9.278;2022-09-19T06:05:50;99028.97;;;8.98;82.40
9969;BME280;5025;48.890;9.278;2022-09-19T06:08:19;99031.06;;;8.96;82.06
9969;BME280;5025;48.890;9.278;2022-09-19T06:10:46;99036.41;;;9.03;81.99
9969;BME280;5025;48.890;9.278;2022-09-19T06:13:17;99033.34;;;8.99;82.06
9969;BME280;5025;48.890;9.278;2022-09-19T06:15:42;99026.28;;;8.98;82.20
9969;BME280;5025;48.890;9.278;2022-09-19T06:18:08;99028.53;;;9.01;81.93
9969;BME280;5025;48.890;9.278;2022-09-19T06:20:37;99035.56;;;9.09;81.81
9969;BME280;5025;48.890;9.278;2022-09-19T06:23:04;99034.94;;;9.13;81.77
9969;BME280;5025;48.890;9.278;2022-09-19T06:25:32;99038.28;;;9.02;82.16
9969;BME280;5025;48.890;9.278;2022-09-19T06:28:00;99041.63;;;8.97;82.27
9969;BME280;5025;48.890;9.278;2022-09-19T06:30:27;99045.56;;;9.02;82.25
9969;BME280;5025;48.890;9.278;2022-09-19T06:32:52;99060.88;;;9.01;82.20
9969;BME280;5025;48.890;9.278;2022-09-19T06:35:19;99061.28;;;8.98;82.18
9969;BME280;5025;48.890;9.278;2022-09-19T06:37:46;99062.13;;;8.92;82.33
9969;BME280;5025;48.890;9.278;2022-09-19T06:40:13;99064.41;;;8.95;82.52
9969;BME280;5025;48.890;9.278;2022-09-19T06:42:39;99058.41;;;8.93;82.30
9969;BME280;5025;48.890;9.278;2022-09-19T06:45:05;99067.09;;;8.95;82.70
9969;BME280;5025;48.890;9.278;2022-09-19T06:47:31;99061.72;;;9.02;82.38
9969;BME280;5025;48.890;9.278;2022-09-19T06:49:56;99069.16;;;9.00;82.35
9969;BME280;5025;48.890;9.278;2022-09-19T06:52:24;99070.84;;;8.94;82.14
9969;BME280;5025;48.890;9.278;2022-09-19T06:54:49;99072.47;;;9.08;82.06
9969;BME280;5025;48.890;9.278;2022-09-19T06:57:14;99074.56;;;9.06;81.83
9969;BME280;5025;48.890;9.278;2022-09-19T06:59:40;99078.28;;;9.05;82.00
9969;BME280;5025;48.890;9.278;2022-09-19T07:02:05;99084.47;;;9.12;82.10
9969;BME280;5025;48.890;9.278;2022-09-19T07:04:30;99081.78;;;9.12;82.08
9969;BME280;5025;48.890;9.278;2022-09-19T07:07:01;99088.63;;;9.08;82.23
9969;BME280;5025;48.890;9.278;2022-09-19T07:09:26;99091.53;;;9.07;82.37
9969;BME280;5025;48.890;9.278;2022-09-19T07:11:52;99087.00;;;9.01;82.07
9969;BME280;5025;48.890;9.278;2022-09-19T07:14:22;99096.28;;;9.11;82.07
9969;BME280;5025;48.890;9.278;2022-09-19T07:16:47;99092.13;;;9.22;81.87
9969;BME280;5025;48.890;9.278;2022-09-19T07:19:12;99100.59;;;9.26;81.59
9969;BME280;5025;48.890;9.278;2022-09-19T07:21:37;99095.00;;;9.27;81.68
9969;BME280;5025;48.890;9.278;2022-09-19T07:24:03;99094.59;;;9.24;81.64
9969;BME280;5025;48.890;9.278;2022-09-19T07:26:29;99098.06;;;9.31;81.42
9969;BME280;5025;48.890;9.278;2022-09-19T07:28:55;99112.19;;;9.26;81.33
9969;BME280;5025;48.890;9.278;2022-09-19T07:31:20;99110.09;;;9.35;80.90
9969;BME280;5025;48.890;9.278;2022-09-19T07:33:46;99115.47;;;9.35;80.81
9969;BME280;5025;48.890;9.278;2022-09-19T07:36:12;99115.28;;;9.37;80.75
9969;BME280;5025;48.890;9.278;2022-09-19T07:38:38;99116.69;;;9.46;80.90
9969;BME280;5025;48.890;9.278;2022-09-19T07:41:03;99112.78;;;9.35;80.67
9969;BME280;5025;48.890;9.278;2022-09-19T07:43:29;99118.78;;;9.37;80.96
9969;BME280;5025;48.890;9.278;2022-09-19T07:45:54;99116.88;;;9.51;80.49
9969;BME280;5025;48.890;9.278;2022-09-19T07:48:20;99122.44;;;9.63;80.22
9969;BME280;5025;48.890;9.278;2022-09-19T07:50:46;99122.44;;;9.63;80.52
9969;BME280;5025;48.890;9.278;2022-09-19T07:53:15;99131.13;;;9.65;80.67
9969;BME280;5025;48.890;9.278;2022-09-19T07:55:41;99136.50;;;9.65;81.05
9969;BME280;5025;48.890;9.278;2022-09-19T07:58:11;99126.38;;;9.60;80.99
9969;BME280;5025;48.890;9.278;2022-09-19T08:00:38;99138.81;;;9.61;80.80
9969;BME280;5025;48.890;9.278;2022-09-19T08:03:06;99136.50;;;9.72;80.79
9969;BME280;5025;48.890;9.278;2022-09-19T08:05:35;99154.53;;;9.71;80.61
9969;BME280;5025;48.890;9.278;2022-09-19T08:08:01;99144.00;;;9.63;80.27
9969;BME280;5025;48.890;9.278;2022-09-19T08:10:27;99147.94;;;9.67;79.87
9969;BME280;5025;48.890;9.278;2022-09-19T08:12:52;99156.03;;;9.67;80.03
9969;BME280;5025;48.890;9.278;2022-09-19T08:15:18;99158.31;;;9.63;79.69
9969;BME280;5025;48.890;9.278;2022-09-19T08:17:55;99157.44;;;9.69;79.92
9969;BME280;5025;48.890;9.278;2022-09-19T08:20:22;99158.03;;;9.78;79.75
9969;BME280;5025;48.890;9.278;2022-09-19T08:22:47;99161.13;;;9.82;79.77
9969;BME280;5025;48.890;9.278;2022-09-19T08:25:13;99160.13;;;9.76;79.99
9969;BME280;5025;48.890;9.278;2022-09-19T08:27:43;99166.56;;;9.75;80.11
9969;BME280;5025;48.890;9.278;2022-09-19T08:30:08;99167.81;;;9.79;79.72
9969;BME280;5025;48.890;9.278;2022-09-19T08:32:34;99163.88;;;9.75;79.71
9969;BME280;5025;48.890;9.278;2022-09-19T08:34:59;99175.03;;;9.79;79.74
9969;BME280;5025;48.890;9.278;2022-09-19T08:37:25;99168.63;;;9.80;79.63
9969;BME280;5025;48.890;9.278;2022-09-19T08:39:50;99184.59;;;9.81;79.56
9969;BME280;5025;48.890;9.278;2022-09-19T08:42:58;99185.84;;;9.79;79.26
9969;BME280;5025;48.890;9.278;2022-09-19T08:45:44;99173.59;;;9.83;79.00
9969;BME280;5025;48.890;9.278;2022-09-19T08:49:08;99179.38;;;9.93;79.12
9969;BME280;5025;48.890;9.278;2022-09-19T08:51:16;99186.38;;;9.94;79.13
9969;BME280;5025;48.890;9.278;2022-09-19T08:53:45;99188.91;;;9.89;78.46
9969;BME280;5025;48.890;9.278;2022-09-19T08:56:14;99194.91;;;9.98;78.42
9969;BME280;5025;48.890;9.278;2022-09-19T08:58:49;99191.13;;;10.05;78.54
9969;BME280;5025;48.890;9.278;2022-09-19T09:01:16;99200.41;;;10.16;78.17
9969;BME280;5025;48.890;9.278;2022-09-19T09:04:25;99197.28;;;10.19;78.05
9969;BME280;5025;48.890;9.278;2022-09-19T09:10:10;99197.50;;;10.11;77.79
9969;BME280;5025;48.890;9.278;2022-09-19T09:12:59;99204.75;;;10.17;78.10
9969;BME280;5025;48.890;9.278;2022-09-19T09:15:49;99210.59;;;10.14;77.88
9969;BME280;5025;48.890;9.278;2022-09-19T09:21:22;99209.34;;;10.17;78.06
9969;BME280;5025;48.890;9.278;2022-09-19T09:23:58;99204.09;;;10.22;77.73
9969;BME280;5025;48.890;9.278;2022-09-19T09:26:27;99201.63;;;10.20;77.01
9969;BME280;5025;48.890;9.278;2022-09-19T09:29:01;99213.06;;;10.22;76.26
9969;BME280;5025;48.890;9.278;2022-09-19T09:31:31;99206.59;;;10.23;76.05
9969;BME280;5025;48.890;9.278;2022-09-19T09:34:05;99197.63;;;10.30;75.82
9969;BME280;5025;48.890;9.278;2022-09-19T09:36:39;99202.19;;;10.36;74.78
9969;BME280;5025;48.890;9.278;2022-09-19T09:39:24;99200.50;;;10.42;74.24
9969;BME280;5025;48.890;9.278;2022-09-19T09:41:57;99200.44;;;10.48;73.90
9969;BME280;5025;48.890;9.278;2022-09-19T09:49:47;99209.94;;;10.57;72.78
9969;BME280;5025;48.890;9.278;2022-09-19T09:52:43;99203.66;;;10.64;72.62
9969;BME280;5025;48.890;9.278;2022-09-19T09:59:19;99211.72;;;10.70;72.20
9969;BME280;5025;48.890;9.278;2022-09-19T10:01:14;99206.59;;;10.62;71.86
9969;BME280;5025;48.890;9.278;2022-09-19T10:04:11;99199.66;;;10.73;72.10
9969;BME280;5025;48.890;9.278;2022-09-19T10:06:47;99204.84;;;10.74;72.22
9969;BME280;5025;48.890;9.278;2022-09-19T10:09:22;99205.00;;;10.80;72.48
9969;BME280;5025;48.890;9.278;2022-09-19T10:14:26;99204.13;;;10.86;72.78
9969;BME280;5025;48.890;9.278;2022-09-19T10:17:01;99203.25;;;10.92;72.94
9969;BME280;5025;48.890;9.278;2022-09-19T10:21:53;99207.22;;;10.89;73.37
9969;BME280;5025;48.890;9.278;2022-09-19T10:24:45;99200.94;;;10.96;73.40
9969;BME280;5025;48.890;9.278;2022-09-19T10:27:13;99195.91;;;10.99;73.01
9969;BME280;5025;48.890;9.278;2022-09-19T10:29:54;99210.88;;;11.02;73.15
9969;BME280;5025;48.890;9.278;2022-09-19T10:32:23;99207.72;;;11.05;73.28
9969;BME280;5025;48.890;9.278;2022-09-19T10:34:50;99199.31;;;11.13;73.30
9969;BME280;5025;48.890;9.278;2022-09-19T10:37:17;99211.50;;;11.22;73.36
9969;BME280;5025;48.890;9.278;2022-09-19T10:39:45;99207.53;;;11.25;73.06
9969;BME280;5025;48.890;9.278;2022-09-19T10:42:32;99196.56;;;11.38;72.78
9969;BME280;5025;48.890;9.278;2022-09-19T10:45:00;99199.16;;;11.52;72.18
9969;BME280;5025;48.890;9.278;2022-09-19T10:47:28;99195.19;;;11.54;71.90
9969;BME280;5025;48.890;9.278;2022-09-19T10:49:59;99193.22;;;11.61;72.06
9969;BME280;5025;48.890;9.278;2022-09-19T10:52:27;99198.16;;;11.64;71.93
9969;BME280;5025;48.890;9.278;2022-09-19T10:54:57;99200.28;;;11.81;71.86
9969;BME280;5025;48.890;9.278;2022-09-19T10:57:43;99204.19;;;11.85;71.68
9969;BME280;5025;48.890;9.278;2022-09-19T11:00:27;99191.56;;;11.79;71.52
9969;BME280;5025;48.890;9.278;2022-09-19T11:02:56;99194.78;;;11.88;71.44
9969;BME280;5025;48.890;9.278;2022-09-19T11:05:34;99206.19;;;11.90;70.79
9969;BME280;5025;48.890;9.278;2022-09-19T11:08:00;99191.72;;;11.84;70.72
9969;BME280;5025;48.890;9.278;2022-09-19T11:10:36;99199.44;;;11.99;70.77
9969;BME280;5025;48.890;9.278;2022-09-19T11:13:15;99198.91;;;12.09;70.24
9969;BME280;5025;48.890;9.278;2022-09-19T11:21:05;99206.41;;;12.25;69.12
9969;BME280;5025;48.890;9.278;2022-09-19T11:23:44;99198.91;;;12.39;68.93
9969;BME280;5025;48.890;9.278;2022-09-19T11:29:19;99198.63;;;12.59;68.54
9969;BME280;5025;48.890;9.278;2022-09-19T11:45:25;99192.22;;;13.07;66.82
9969;BME280;5025;48.890;9.278;2022-09-19T11:48:06;99191.06;;;13.15;66.56
9969;BME280;5025;48.890;9.278;2022-09-19T11:59:06;99195.28;;;13.23;66.13
9969;BME280;5025;48.890;9.278;2022-09-19T12:01:45;99193.63;;;13.22;65.34
9969;BME280;5025;48.890;9.278;2022-09-19T12:10:10;99172.56;;;13.36;65.09
9969;BME280;5025;48.890;9.278;2022-09-19T12:12:41;99177.75;;;13.37;65.16
9969;BME280;5025;48.890;9.278;2022-09-19T12:15:21;99176.31;;;13.47;64.88
9969;BME280;5025;48.890;9.278;2022-09-19T12:21:07;99168.75;;;13.49;63.98
9969;BME280;5025;48.890;9.278;2022-09-19T12:23:43;99167.81;;;13.43;64.15
9969;BME280;5025;48.890;9.278;2022-09-19T12:26:32;99163.81;;;13.22;63.72
9969;BME280;5025;48.890;9.278;2022-09-19T12:29:11;99161.53;;;13.31;64.13
9969;BME280;5025;48.890;9.278;2022-09-19T12:31:46;99163.56;;;13.47;64.51
9969;BME280;5025;48.890;9.278;2022-09-19T12:34:36;99150.78;;;13.71;63.96
9969;BME280;5025;48.890;9.278;2022-09-19T12:37:25;99147.34;;;13.76;63.97
9969;BME280;5025;48.890;9.278;2022-09-19T12:42:55;99150.78;;;13.71;62.64
9969;BME280;5025;48.890;9.278;2022-09-19T12:45:52;99151.19;;;13.51;62.55
9969;BME280;5025;48.890;9.278;2022-09-19T12:51:17;99155.06;;;13.32;64.01
9969;BME280;5025;48.890;9.278;2022-09-19T12:54:03;99152.16;;;13.33;64.64
9969;BME280;5025;48.890;9.278;2022-09-19T12:56:32;99149.78;;;13.13;65.32
9969;BME280;5025;48.890;9.278;2022-09-19T12:59:15;99153.44;;;13.19;66.49
9969;BME280;5025;48.890;9.278;2022-09-19T13:01:50;99141.63;;;13.49;65.88
9969;BME280;5025;48.890;9.278;2022-09-19T13:04:44;99143.13;;;13.68;65.62
9969;BME280;5025;48.890;9.278;2022-09-19T13:09:55;99138.91;;;13.49;63.38
9969;BME280;5025;48.890;9.278;2022-09-19T13:12:46;99134.63;;;13.65;63.65
9969;BME280;5025;48.890;9.278;2022-09-19T13:15:35;99133.56;;;13.66;63.74
9969;BME280;5025;48.890;9.278;2022-09-19T13:18:04;99128.97;;;13.95;62.03
9969;BME280;5025;48.890;9.278;2022-09-19T13:20:49;99124.03;;;14.21;61.36
9969;BME280;5025;48.890;9.278;2022-09-19T13:23:34;99128.22;;;14.11;61.00
9969;BME280;5025;48.890;9.278;2022-09-19T13:26:33;99122.03;;;14.62;61.19
9969;BME280;5025;48.890;9.278;2022-09-19T13:29:41;99124.41;;;15.31;60.23
9969;BME280;5025;48.890;9.278;2022-09-19T13:32:02;99124.56;;;15.86;58.55
9969;BME280;5025;48.890;9.278;2022-09-19T13:36:58;99119.03;;;16.03;54.62
9969;BME280;5025;48.890;9.278;2022-09-19T13:39:45;99128.06;;;15.81;54.41
9969;BME280;5025;48.890;9.278;2022-09-19T13:42:44;99121.41;;;15.50;54.56
9969;BME280;5025;48.890;9.278;2022-09-19T13:48:24;99123.22;;;15.22;56.05
9969;BME280;5025;48.890;9.278;2022-09-19T13:50:56;99119.72;;;15.04;56.58
9969;BME280;5025;48.890;9.278;2022-09-19T13:56:04;99127.16;;;14.75;57.88
9969;BME280;5025;48.890;9.278;2022-09-19T13:58:34;99130.09;;;14.57;58.14
9969;BME280;5025;48.890;9.278;2022-09-19T14:01:34;99135.19;;;14.36;59.64
9969;BME280;5025;48.890;9.278;2022-09-19T14:04:01;99132.69;;;14.34;60.42
9969;BME280;5025;48.890;9.278;2022-09-19T14:06:57;99132.28;;;14.43;60.34
9969;BME280;5025;48.890;9.278;2022-09-19T14:11:55;99140.53;;;14.48;60.59
9969;BME280;5025;48.890;9.278;2022-09-19T14:19:46;99158.06;;;13.83;65.96
9969;BME280;5025;48.890;9.278;2022-09-19T14:25:02;99159.81;;;13.13;69.35
9969;BME280;5025;48.890;9.278;2022-09-19T14:33:26;99159.09;;;12.82;70.57
9969;BME280;5025;48.890;9.278;2022-09-19T14:39:13;99153.78;;;12.99;69.90
9969;BME280;5025;48.890;9.278;2022-09-19T14:47:34;99150.72;;;13.19;69.12
9969;BME280;5025;48.890;9.278;2022-09-19T14:50:22;99144.44;;;13.30;69.03
9969;BME280;5025;48.890;9.278;2022-09-19T14:52:54;99138.19;;;13.65;68.47
9969;BME280;5025;48.890;9.278;2022-09-19T14:55:28;99134.25;;;14.02;67.57
9969;BME280;5025;48.890;9.278;2022-09-19T14:57:54;99134.16;;;14.71;66.82
9969;BME280;5025;48.890;9.278;2022-09-19T15:00:25;99134.44;;;15.48;64.13
9969;BME280;5025;48.890;9.278;2022-09-19T15:02:53;99139.09;;;16.46;62.44
9969;BME280;5025;48.890;9.278;2022-09-19T15:05:22;99137.53;;;17.25;60.26
9969;BME280;5025;48.890;9.278;2022-09-19T15:07:51;99132.91;;;17.89;58.48
9969;BME280;5025;48.890;9.278;2022-09-19T15:12:56;99127.56;;;18.81;55.10
9969;BME280;5025;48.890;9.278;2022-09-19T15:15:25;99134.69;;;19.13;53.92
9969;BME280;5025;48.890;9.278;2022-09-19T15:17:55;99125.94;;;18.96;52.09
9969;BME280;5025;48.890;9.278;2022-09-19T15:20:21;99130.03;;;18.98;52.24
9969;BME280;5025;48.890;9.278;2022-09-19T15:22:50;99127.56;;;18.56;52.50
9969;BME280;5025;48.890;9.278;2022-09-19T15:25:36;99134.91;;;18.14;53.02
9969;BME280;5025;48.890;9.278;2022-09-19T15:28:21;99132.56;;;17.70;53.29
9969;BME280;5025;48.890;9.278;2022-09-19T15:30:50;99127.53;;;17.46;54.12
9969;BME280;5025;48.890;9.278;2022-09-19T15:33:16;99126.16;;;17.44;54.39
9969;BME280;5025;48.890;9.278;2022-09-19T15:35:43;99133.81;;;17.52;54.70
9969;BME280;5025;48.890;9.278;2022-09-19T15:38:19;99132.16;;;18.09;54.08
9969;BME280;5025;48.890;9.278;2022-09-19T15:40:46;99125.34;;;18.12;53.30
9969;BME280;5025;48.890;9.278;2022-09-19T15:43:12;99128.13;;;18.37;53.28
9969;BME280;5025;48.890;9.278;2022-09-19T15:45:39;99130.56;;;18.54;52.32
9969;BME280;5025;48.890;9.278;2022-09-19T15:48:21;99130.84;;;18.22;52.42
9969;BME280;5025;48.890;9.278;2022-09-19T15:50:51;99130.09;;;17.68;52.57
9969;BME280;5025;48.890;9.278;2022-09-19T15:53:21;99130.97;;;17.26;53.15
9969;BME280;5025;48.890;9.278;2022-09-19T15:56:09;99132.34;;;16.86;53.59
9969;BME280;5025;48.890;9.278;2022-09-19T15:58:41;99130.41;;;16.54;54.04
9969;BME280;5025;48.890;9.278;2022-09-19T16:03:39;99132.44;;;16.96;53.92
9969;BME280;5025;48.890;9.278;2022-09-19T16:06:20;99126.13;;;16.96;53.89